Time;durP1;ratioP1;P1;durP2;ratioP2;P2;SDS_P1;SDS_P2;PMS_P1;PMS_P2;Temp;Humidity;BMP_temperature;BMP_pressure;BME280_temperature;BME280_humidity;BME280_pressure;Samples;Min_cycle;Max_cycle;Signal;HPM_P1;HPM_P2
2024/01/18 00:01:10;;;;;;;0.10;0.10;;;-3.90;99.90;;;;;;5094479;28;20047;-82
2024/01/18 00:03:38;;;;;;;0.27;0.27;;;-3.90;99.90;;;;;;5105074;28;20067;-82
2024/01/18 00:06:04;;;;;;;0.17;0.17;;;-4.00;99.90;;;;;;5098013;28;20082;-82
2024/01/18 00:08:30;;;;;;;1.00;0.93;;;-4.00;99.90;;;;;;5081581;28;20062;-82
2024/01/18 00:10:55;;;;;;;0.27;0.27;;;-4.00;99.90;;;;;;5101974;28;20071;-82
2024/01/18 00:13:21;;;;;;;0.17;0.17;;;-4.00;99.90;;;;;;5106171;28;20051;-82
2024/01/18 00:15:47;;;;;;;1.17;1.07;;;-3.90;99.90;;;;;;5098209;28;20127;-82
2024/01/18 00:18:12;;;;;;;0.77;0.77;;;-3.80;99.90;;;;;;5103091;28;20453;-82
2024/01/18 00:20:38;;;;;;;0.43;0.43;;;-3.80;99.90;;;;;;5108774;28;20040;-82
2024/01/18 00:23:04;;;;;;;0.10;0.10;;;-3.80;99.90;;;;;;5096405;28;20040;-82
2024/01/18 00:25:29;;;;;;;0.27;0.27;;;-3.90;98.20;;;;;;5096594;28;20051;-82
2024/01/18 00:27:55;;;;;;;5.53;2.23;;;-4.00;90.40;;;;;;5068607;28;20055;-82
2024/01/18 00:30:21;;;;;;;1.13;1.03;;;-4.00;79.60;;;;;;5098743;28;20039;-82
2024/01/18 00:32:46;;;;;;;1.17;1.07;;;-4.10;84.80;;;;;;5097627;28;20125;-82
2024/01/18 00:35:12;;;;;;;1.33;1.23;;;-4.20;65.70;;;;;;5105418;28;20088;-82
2024/01/18 00:37:37;;;;;;;0.00;0.00;;;-3.30;68.90;;;;;;5100866;28;20075;-82
2024/01/18 00:40:03;;;;;;;0.40;0.40;;;-4.20;73.40;;;;;;5074919;28;20040;-82
2024/01/18 00:42:29;;;;;;;0.20;0.20;;;-4.30;55.60;;;;;;5101059;28;20069;-82
2024/01/18 00:44:55;;;;;;;0.30;0.30;;;-4.40;44.70;;;;;;5068361;28;20048;-82
2024/01/18 00:47:20;;;;;;;0.00;0.00;;;-4.50;14.30;;;;;;5103487;28;20074;-81
2024/01/18 00:49:46;;;;;;;0.10;0.10;;;-4.50;7.50;;;;;;5101934;28;20044;-82
2024/01/18 00:52:11;;;;;;;0.20;0.20;;;-4.60;3.50;;;;;;5074636;28;20056;-82
2024/01/18 00:54:37;;;;;;;0.47;0.47;;;-4.60;8.60;;;;;;5073109;28;20075;-82
2024/01/18 00:57:03;;;;;;;0.50;0.50;;;-4.50;92.10;;;;;;5104705;28;20047;-82
2024/01/18 00:59:28;;;;;;;2.13;1.37;;;-4.40;96.00;;;;;;5104286;28;20050;-82
2024/01/18 01:01:54;;;;;;;0.10;0.10;;;-4.30;99.40;;;;;;5104779;28;20086;-82
2024/01/18 01:04:20;;;;;;;0.10;0.10;;;-4.30;99.90;;;;;;5087953;28;20054;-82
2024/01/18 01:06:45;;;;;;;0.90;0.77;;;-4.20;99.90;;;;;;5100426;28;20534;-82
2024/01/18 01:09:11;;;;;;;0.47;0.47;;;-4.10;99.90;;;;;;5093938;28;20062;-82
2024/01/18 01:11:37;;;;;;;0.03;0.03;;;-4.10;99.90;;;;;;5099113;28;20055;-82
2024/01/18 01:14:02;;;;;;;0.00;0.00;;;-4.00;99.90;;;;;;5094572;28;20497;-83
2024/01/18 01:16:28;;;;;;;0.00;0.00;;;-4.10;99.30;;;;;;5092731;28;20036;-83
2024/01/18 01:18:54;;;;;;;0.20;0.20;;;-4.20;93.60;;;;;;5099968;28;20077;-82
2024/01/18 01:21:19;;;;;;;0.13;0.13;;;-4.20;99.90;;;;;;5102112;28;20044;-82
2024/01/18 01:23:48;;;;;;;0.10;0.10;;;-4.20;98.50;;;;;;5103113;28;20477;-82
2024/01/18 01:26:15;;;;;;;0.10;0.10;;;-4.30;79.50;;;;;;5111171;28;20481;-82
2024/01/18 01:28:42;;;;;;;0.00;0.00;;;-4.40;21.40;;;;;;5081415;28;20048;-83
2024/01/18 01:31:07;;;;;;;0.00;0.00;;;-4.60;1.00;;;;;;5100883;28;20051;-82
2024/01/18 01:33:34;;;;;;;0.10;0.10;;;-4.70;1.00;;;;;;5103512;28;20051;-82
2024/01/18 01:35:59;;;;;;;0.10;0.10;;;-4.70;1.00;;;;;;5096576;28;20082;-82
2024/01/18 01:38:25;;;;;;;0.00;0.00;;;-4.80;13.50;;;;;;5101801;28;20043;-82
2024/01/18 01:40:51;;;;;;;0.20;0.20;;;-4.80;24.30;;;;;;5095358;28;20045;-82
2024/01/18 01:43:17;;;;;;;0.10;0.10;;;-4.80;14.80;;;;;;5095717;28;20048;-82
2024/01/18 01:45:43;;;;;;;0.23;0.23;;;-4.80;10.30;;;;;;5101736;28;20040;-82
2024/01/18 01:48:09;;;;;;;0.00;0.00;;;-4.80;9.70;;;;;;5103764;28;20047;-82
2024/01/18 01:50:36;;;;;;;0.00;0.00;;;-4.80;25.50;;;;;;5084907;28;20591;-82
2024/01/18 01:53:02;;;;;;;0.00;0.00;;;-4.70;37.60;;;;;;5093793;28;20116;-82
2024/01/18 01:55:28;;;;;;;0.00;0.00;;;-4.70;56.70;;;;;;5065062;28;20052;-82
2024/01/18 01:57:54;;;;;;;0.00;0.00;;;-4.50;99.90;;;;;;5098435;28;20036;-82
2024/01/18 02:00:21;;;;;;;0.00;0.00;;;-3.90;99.90;;;;;;5104362;28;20046;-82
2024/01/18 02:02:47;;;;;;;0.00;0.00;;;-4.40;99.90;;;;;;5096782;28;20080;-82
2024/01/18 02:05:14;;;;;;;0.00;0.00;;;-4.40;99.90;;;;;;5089625;28;20459;-82
2024/01/18 02:07:39;;;;;;;0.00;0.00;;;-4.30;99.90;;;;;;5096241;28;20496;-83
2024/01/18 02:10:06;;;;;;;0.00;0.00;;;-4.20;99.90;;;;;;5100168;28;20073;-82
2024/01/18 02:12:33;;;;;;;0.00;0.00;;;-4.30;99.90;;;;;;5098712;28;20048;-82
2024/01/18 02:14:59;;;;;;;0.00;0.00;;;-4.20;99.90;;;;;;5071037;28;20094;-82
2024/01/18 02:17:25;;;;;;;0.00;0.00;;;-4.30;99.90;;;;;;5101288;28;20039;-82
2024/01/18 02:19:50;;;;;;;0.00;0.00;;;-4.30;99.90;;;;;;5101956;28;20040;-82
2024/01/18 02:22:17;;;;;;;0.20;0.20;;;-4.30;99.90;;;;;;5101898;28;20051;-82
2024/01/18 02:24:50;;;;;;;0.40;0.40;;;-4.30;99.90;;;;;;5090294;28;20560;-82
2024/01/18 02:27:16;;;;;;;0.00;0.00;;;-4.20;1.00;;;;;;5097603;28;20044;-82
2024/01/18 02:29:43;;;;;;;0.03;0.03;;;-4.20;1.00;;;;;;5110762;28;20382;-82
2024/01/18 02:32:09;;;;;;;0.03;0.03;;;-4.20;99.90;;;;;;5094072;28;20047;-82
2024/01/18 02:34:40;;;;;;;0.00;0.00;;;-4.30;99.90;;;;;;5102432;28;20036;-82
2024/01/18 02:37:07;;;;;;;0.27;0.27;;;-4.30;99.90;;;;;;5086883;28;20047;-82
2024/01/18 02:39:33;;;;;;;0.00;0.00;;;-4.30;99.90;;;;;;5099911;28;20451;-82
2024/01/18 02:42:00;;;;;;;0.00;0.00;;;-4.30;99.90;;;;;;5094820;28;20511;-82
2024/01/18 02:44:27;;;;;;;0.00;0.00;;;-4.30;99.90;;;;;;5091712;28;20086;-82
2024/01/18 02:46:52;;;;;;;0.00;0.00;;;-4.20;1.00;;;;;;5090054;28;20048;-82
2024/01/18 02:49:18;;;;;;;0.00;0.00;;;-4.20;99.90;;;;;;5097861;28;20970;-82
2024/01/18 02:51:44;;;;;;;0.00;0.00;;;-4.20;99.90;;;;;;5098377;28;20195;-82
2024/01/18 02:54:10;;;;;;;0.00;0.00;;;-4.20;99.90;;;;;;5100254;28;20051;-82
2024/01/18 02:56:37;;;;;;;0.10;0.10;;;-4.20;99.90;;;;;;5094871;28;20067;-82
2024/01/18 02:59:03;;;;;;;2.63;0.67;;;-4.30;99.90;;;;;;5054130;28;20044;-82
2024/01/18 03:01:29;;;;;;;0.00;0.00;;;-4.30;99.90;;;;;;5073364;28;20055;-82
2024/01/18 03:03:55;;;;;;;0.00;0.00;;;-4.40;99.90;;;;;;5096872;28;20145;-83
2024/01/18 03:06:20;;;;;;;0.00;0.00;;;-4.50;99.90;;;;;;5098707;28;20032;-82
2024/01/18 03:08:46;;;;;;;0.00;0.00;;;-4.60;99.90;;;;;;5102184;28;20060;-82
2024/01/18 03:11:11;;;;;;;0.30;0.30;;;-4.70;99.90;;;;;;5105565;28;20067;-82
2024/01/18 03:13:38;;;;;;;0.00;0.00;;;-4.70;99.90;;;;;;5105011;28;20050;-82
2024/01/18 03:16:03;;;;;;;0.00;0.00;;;-4.70;99.90;;;;;;5095638;28;20055;-82
2024/01/18 03:18:29;;;;;;;0.00;0.00;;;-4.80;99.90;;;;;;5104532;28;20036;-82
2024/01/18 03:20:55;;;;;;;0.00;0.00;;;-4.80;99.90;;;;;;5106163;28;20047;-82
2024/01/18 03:23:20;;;;;;;0.20;0.20;;;-4.90;99.90;;;;;;5095252;28;20083;-82
2024/01/18 03:25:46;;;;;;;0.00;0.00;;;-4.90;99.90;;;;;;5090690;28;20493;-82
2024/01/18 03:28:12;;;;;;;0.10;0.10;;;-4.90;99.90;;;;;;5068651;28;20055;-82
2024/01/18 03:30:37;;;;;;;0.00;0.00;;;-4.90;99.90;;;;;;5101711;28;20052;-82
2024/01/18 03:33:03;;;;;;;0.00;0.00;;;-5.00;99.90;;;;;;5108500;28;20910;-82
2024/01/18 03:35:29;;;;;;;0.00;0.00;;;-5.00;99.90;;;;;;5095976;28;20048;-82
2024/01/18 03:37:54;;;;;;;0.03;0.03;;;-5.00;99.90;;;;;;5099830;28;20052;-83
2024/01/18 03:40:20;;;;;;;0.00;0.00;;;-5.00;99.90;;;;;;5104313;28;20071;-83
2024/01/18 03:42:46;;;;;;;0.00;0.00;;;-5.10;99.90;;;;;;5100282;28;20070;-83
2024/01/18 03:45:11;;;;;;;0.00;0.00;;;-5.10;99.90;;;;;;5097931;28;20134;-83
2024/01/18 03:47:37;;;;;;;0.63;0.63;;;-5.10;99.90;;;;;;5100240;28;20063;-82
2024/01/18 03:50:03;;;;;;;0.10;0.10;;;-5.10;99.90;;;;;;5103204;28;20047;-82
2024/01/18 03:52:29;;;;;;;0.03;0.03;;;-5.00;99.90;;;;;;5101513;28;20606;-82
2024/01/18 03:54:54;;;;;;;0.00;0.00;;;-5.00;99.90;;;;;;5075151;28;20117;-82
2024/01/18 03:57:20;;;;;;;0.03;0.03;;;-4.30;99.90;;;;;;5102399;28;20425;-82
2024/01/18 03:59:46;;;;;;;0.00;0.00;;;-5.10;99.90;;;;;;5101494;28;20411;-83
2024/01/18 04:02:13;;;;;;;0.00;0.00;;;-4.90;99.90;;;;;;5062048;28;20098;-82
2024/01/18 04:04:39;;;;;;;0.00;0.00;;;-4.80;99.90;;;;;;5088378;28;20076;-82
2024/01/18 04:07:04;;;;;;;0.40;0.40;;;-4.60;99.90;;;;;;5113597;28;20044;-83
2024/01/18 04:09:30;;;;;;;0.07;0.07;;;-4.40;99.90;;;;;;5104630;28;20694;-82
2024/01/18 04:11:55;;;;;;;0.03;0.03;;;-4.30;99.90;;;;;;5084867;28;20056;-82
2024/01/18 04:14:21;;;;;;;0.00;0.00;;;-4.10;99.90;;;;;;5100698;28;20040;-82
2024/01/18 04:16:47;;;;;;;0.00;0.00;;;-3.80;97.90;;;;;;5072953;28;20646;-83
2024/01/18 04:19:13;;;;;;;0.10;0.10;;;-3.60;99.90;;;;;;5093896;28;20505;-82
2024/01/18 04:21:38;;;;;;;0.03;0.03;;;-3.60;91.90;;;;;;5099859;28;20039;-82
2024/01/18 04:24:05;;;;;;;0.00;0.00;;;-3.40;99.90;;;;;;5080131;28;20052;-82
2024/01/18 04:26:33;;;;;;;0.00;0.00;;;-3.10;99.90;;;;;;5103962;28;20157;-82
2024/01/18 04:29:00;;;;;;;0.00;0.00;;;-3.00;99.90;;;;;;5109648;28;20043;-82
2024/01/18 04:31:25;;;;;;;0.00;0.00;;;-2.90;99.90;;;;;;5068988;28;20047;-82
2024/01/18 04:33:51;;;;;;;0.07;0.07;;;-2.50;1.00;;;;;;5075848;28;20098;-82
2024/01/18 04:36:17;;;;;;;0.00;0.00;;;-2.50;99.90;;;;;;5101258;28;20042;-82
2024/01/18 04:38:42;;;;;;;0.10;0.10;;;-1.80;91.60;;;;;;5104921;28;20032;-82
2024/01/18 04:41:08;;;;;;;0.00;0.00;;;-2.10;99.90;;;;;;5098165;28;20078;-82
2024/01/18 04:43:34;;;;;;;0.00;0.00;;;-2.00;99.90;;;;;;5108705;28;21021;-83
2024/01/18 04:46:00;;;;;;;0.00;0.00;;;-1.90;99.90;;;;;;5093899;28;20047;-83
2024/01/18 04:48:26;;;;;;;0.00;0.00;;;-1.80;99.90;;;;;;5108906;28;20044;-82
2024/01/18 04:50:51;;;;;;;0.00;0.00;;;-1.80;99.90;;;;;;5057357;28;20463;-82
2024/01/18 04:53:17;;;;;;;0.10;0.10;;;-1.90;99.90;;;;;;5100577;28;20033;-82
2024/01/18 04:55:43;;;;;;;0.00;0.00;;;-1.90;99.90;;;;;;5100405;28;20108;-83
2024/01/18 04:58:09;;;;;;;0.00;0.00;;;-2.00;99.90;;;;;;5107897;28;20054;-82
2024/01/18 05:00:34;;;;;;;0.00;0.00;;;-2.10;99.90;;;;;;5101947;28;20103;-83
2024/01/18 05:03:00;;;;;;;0.00;0.00;;;-2.30;99.90;;;;;;5105134;28;20043;-82
2024/01/18 05:05:26;;;;;;;0.00;0.00;;;-2.50;99.90;;;;;;5097763;28;20051;-82
2024/01/18 05:07:51;;;;;;;0.00;0.00;;;-2.60;99.90;;;;;;5103114;28;20055;-83
2024/01/18 05:10:17;;;;;;;0.00;0.00;;;-2.90;99.90;;;;;;5097331;28;20050;-82
2024/01/18 05:12:45;;;;;;;0.00;0.00;;;-3.10;99.90;;;;;;5100752;28;20126;-82
2024/01/18 05:15:11;;;;;;;0.00;0.00;;;-3.30;99.90;;;;;;5086462;28;20092;-82
2024/01/18 05:17:39;;;;;;;0.00;0.00;;;-3.40;99.90;;;;;;5103132;28;20070;-83
2024/01/18 05:20:06;;;;;;;0.00;0.00;;;-3.60;91.50;;;;;;5093015;28;20107;-82
2024/01/18 05:22:33;;;;;;;0.83;0.47;;;-3.60;12.30;;;;;;5102654;28;20042;-82
2024/01/18 05:25:00;;;;;;;0.00;0.00;;;-3.60;3.30;;;;;;5098011;28;20043;-82
2024/01/18 05:27:30;;;;;;;0.00;0.00;;;-3.70;1.00;;;;;;5103018;28;20096;-82
2024/01/18 05:29:59;;;;;;;0.00;0.00;;;-3.80;1.00;;;;;;5100988;28;20118;-82
2024/01/18 05:32:25;;;;;;;0.00;0.00;;;-3.80;1.00;;;;;;5099293;28;20043;-82
2024/01/18 05:34:51;;;;;;;0.00;0.00;;;-3.90;1.00;;;;;;5093492;28;20058;-82
2024/01/18 05:37:18;;;;;;;0.00;0.00;;;-3.90;1.00;;;;;;5109287;28;20054;-82
2024/01/18 05:39:44;;;;;;;0.00;0.00;;;-3.90;1.00;;;;;;5107139;28;20123;-82
2024/01/18 05:42:10;;;;;;;7.23;0.93;;;-4.00;1.00;;;;;;5106702;28;20383;-82
2024/01/18 05:44:36;;;;;;;0.00;0.00;;;-4.00;1.00;;;;;;5111445;28;20047;-83
2024/01/18 05:47:02;;;;;;;0.00;0.00;;;-3.90;1.00;;;;;;5108194;28;20287;-82
2024/01/18 05:49:28;;;;;;;0.00;0.00;;;-3.90;1.00;;;;;;5092271;28;20044;-82
2024/01/18 05:51:54;;;;;;;0.00;0.00;;;-3.90;1.00;;;;;;5082080;28;20051;-82
2024/01/18 05:54:20;;;;;;;0.00;0.00;;;-3.80;1.00;;;;;;5108729;28;20083;-82
2024/01/18 05:56:48;;;;;;;0.00;0.00;;;-3.90;1.00;;;;;;5105411;28;20075;-82
2024/01/18 05:59:14;;;;;;;0.00;0.00;;;-3.60;99.90;;;;;;5104141;28;20509;-82
2024/01/18 06:01:43;;;;;;;0.00;0.00;;;-3.80;99.90;;;;;;5110050;28;20055;-82
2024/01/18 06:04:09;;;;;;;0.10;0.10;;;-3.70;99.90;;;;;;5114727;28;20035;-83
2024/01/18 06:06:35;;;;;;;0.00;0.00;;;-3.70;99.90;;;;;;5101909;28;20040;-82
2024/01/18 06:09:01;;;;;;;0.00;0.00;;;-3.70;99.90;;;;;;5086686;28;20055;-83
2024/01/18 06:11:26;;;;;;;0.00;0.00;;;-3.70;99.90;;;;;;5093704;28;20051;-82
2024/01/18 06:13:52;;;;;;;0.10;0.10;;;-3.70;99.90;;;;;;5097915;28;20066;-83
2024/01/18 06:16:18;;;;;;;0.00;0.00;;;-3.60;99.90;;;;;;5100189;28;20104;-83
2024/01/18 06:18:44;;;;;;;0.00;0.00;;;-3.40;99.90;;;;;;5095363;28;20040;-83
2024/01/18 06:21:10;;;;;;;0.00;0.00;;;-3.40;99.90;;;;;;5098235;28;20467;-82
2024/01/18 06:23:36;;;;;;;0.00;0.00;;;-3.40;99.90;;;;;;5073821;28;20051;-82
2024/01/18 06:26:03;;;;;;;0.22;0.22;;;-3.30;99.90;;;;;;5090400;28;20131;-83
2024/01/18 06:28:28;;;;;;;0.00;0.00;;;-3.30;99.90;;;;;;5067515;28;20052;-83
2024/01/18 06:30:54;;;;;;;0.07;0.07;;;-3.30;99.90;;;;;;5060881;28;20145;-82
2024/01/18 06:33:20;;;;;;;0.00;0.00;;;-3.20;99.90;;;;;;5076083;28;20490;-83
2024/01/18 06:35:46;;;;;;;0.00;0.00;;;-3.10;99.90;;;;;;5091350;28;20122;-83
2024/01/18 06:38:13;;;;;;;0.00;0.00;;;-3.00;99.90;;;;;;5077180;28;20055;-83
2024/01/18 06:40:40;;;;;;;0.00;0.00;;;-3.00;99.90;;;;;;5094227;28;20075;-82
2024/01/18 06:43:06;;;;;;;0.00;0.00;;;-3.00;99.90;;;;;;5070507;28;20052;-83
2024/01/18 06:45:31;;;;;;;0.00;0.00;;;-3.10;99.90;;;;;;5096918;28;20044;-83
2024/01/18 06:47:57;;;;;;;0.00;0.00;;;-3.20;99.90;;;;;;5093872;28;20047;-83
2024/01/18 06:50:23;;;;;;;0.00;0.00;;;-3.20;99.90;;;;;;5097360;28;20051;-83
2024/01/18 06:52:49;;;;;;;0.00;0.00;;;-3.20;99.90;;;;;;5096226;28;20119;-82
2024/01/18 06:55:15;;;;;;;0.00;0.00;;;-3.30;99.90;;;;;;5096705;28;20047;-82
2024/01/18 06:57:40;;;;;;;0.00;0.00;;;-3.40;99.90;;;;;;5049557;28;20040;-82
2024/01/18 07:00:07;;;;;;;0.03;0.03;;;-3.50;99.90;;;;;;5093862;28;20055;-83
2024/01/18 07:02:36;;;;;;;0.00;0.00;;;-3.60;99.90;;;;;;5096186;28;20377;-83
2024/01/18 07:05:01;;;;;;;1.40;1.00;;;-3.60;99.90;;;;;;5070456;28;20121;-83
2024/01/18 07:07:27;;;;;;;0.00;0.00;;;-3.70;98.40;;;;;;5061192;28;20497;-83
2024/01/18 07:09:52;;;;;;;0.00;0.00;;;-3.70;54.80;;;;;;5078668;28;20416;-83
2024/01/18 07:12:18;;;;;;;1.13;1.07;;;-3.80;1.00;;;;;;5099319;28;20048;-82
2024/01/18 07:14:43;;;;;;;0.00;0.00;;;-4.00;1.00;;;;;;5089109;28;20040;-83
2024/01/18 07:17:12;;;;;;;0.00;0.00;;;-4.10;11.20;;;;;;5091619;28;20044;-83
2024/01/18 07:19:37;;;;;;;0.00;0.00;;;-4.20;1.00;;;;;;5101195;28;20349;-82
2024/01/18 07:22:03;;;;;;;0.40;0.40;;;-4.20;99.90;;;;;;5092200;28;20516;-83
2024/01/18 07:24:30;;;;;;;0.00;0.00;;;-4.30;99.90;;;;;;5093018;28;20470;-83
2024/01/18 07:26:57;;;;;;;0.00;0.00;;;-4.30;99.90;;;;;;5092720;28;20109;-83
2024/01/18 07:29:26;;;;;;;0.00;0.00;;;-4.40;99.90;;;;;;5065819;28;20048;-83
2024/01/18 07:31:51;;;;;;;0.00;0.00;;;-4.30;99.90;;;;;;5092735;28;20035;-83
2024/01/18 07:34:17;;;;;;;0.00;0.00;;;-4.40;99.90;;;;;;5095628;28;20035;-83
2024/01/18 07:36:45;;;;;;;0.00;0.00;;;-4.30;99.90;;;;;;5063205;28;20040;-83
2024/01/18 07:39:11;;;;;;;0.00;0.00;;;-4.00;99.90;;;;;;5093693;28;20036;-83
2024/01/18 07:41:37;;;;;;;0.00;0.00;;;-3.90;99.90;;;;;;5072079;28;20116;-83
2024/01/18 07:44:04;;;;;;;0.00;0.00;;;-3.80;99.90;;;;;;5100836;28;20051;-83
2024/01/18 07:46:30;;;;;;;0.00;0.00;;;-3.80;99.90;;;;;;5087730;28;20036;-82
2024/01/18 07:48:56;;;;;;;0.00;0.00;;;-3.70;99.90;;;;;;5074813;28;20059;-83
2024/01/18 07:51:21;;;;;;;0.00;0.00;;;-3.60;99.90;;;;;;5097505;28;20052;-83
2024/01/18 07:53:47;;;;;;;0.00;0.00;;;-3.30;99.90;;;;;;5099001;28;20066;-83
2024/01/18 07:56:12;;;;;;;0.00;0.00;;;-3.10;99.90;;;;;;5099974;28;20044;-83
2024/01/18 07:58:43;;;;;;;3.00;1.80;;;-2.70;1.00;;;;;;5099363;28;20688;-83
2024/01/18 08:01:09;;;;;;;0.00;0.00;;;-2.70;1.00;;;;;;5093628;28;20150;-83
2024/01/18 08:03:34;;;;;;;0.83;0.73;;;-2.70;1.00;;;;;;5104984;28;20131;-83
2024/01/18 08:06:00;;;;;;;0.10;0.10;;;-2.80;99.90;;;;;;5095569;28;20155;-83
2024/01/18 08:08:25;;;;;;;0.00;0.00;;;-3.00;99.90;;;;;;5090714;28;20137;-83
2024/01/18 08:10:51;;;;;;;0.00;0.00;;;-3.10;99.90;;;;;;5097529;28;20499;-83
2024/01/18 08:13:17;;;;;;;0.00;0.00;;;-3.20;99.90;;;;;;5069382;28;20044;-83
2024/01/18 08:15:42;;;;;;;0.63;0.63;;;-3.30;99.90;;;;;;5068269;28;20132;-83
2024/01/18 08:18:08;;;;;;;0.00;0.00;;;-3.40;99.90;;;;;;5095076;28;20054;-83
2024/01/18 08:20:35;;;;;;;0.03;0.03;;;-3.50;99.90;;;;;;5069534;28;20126;-83
2024/01/18 08:23:01;;;;;;;0.00;0.00;;;-3.40;99.90;;;;;;5095800;28;20125;-83
2024/01/18 08:25:27;;;;;;;0.07;0.07;;;-3.50;99.90;;;;;;5094646;28;20040;-83
2024/01/18 08:27:56;;;;;;;0.00;0.00;;;-3.60;99.90;;;;;;5095494;28;20140;-83
2024/01/18 08:30:22;;;;;;;0.00;0.00;;;-3.60;99.90;;;;;;5094706;28;20056;-83
2024/01/18 08:32:47;;;;;;;2.37;1.40;;;-3.60;99.90;;;;;;5094369;28;20504;-83
2024/01/18 08:35:13;;;;;;;0.00;0.00;;;-3.70;99.90;;;;;;5094042;28;20047;-83
2024/01/18 08:37:39;;;;;;;0.03;0.03;;;-3.70;99.90;;;;;;5068139;28;20555;-83
2024/01/18 08:40:05;;;;;;;0.37;0.37;;;-3.70;99.90;;;;;;5052998;28;20044;-83
2024/01/18 08:42:31;;;;;;;0.43;0.43;;;-3.70;99.90;;;;;;5105814;28;20076;-84
2024/01/18 08:44:57;;;;;;;0.00;0.00;;;-3.70;99.90;;;;;;5096941;28;20560;-83
2024/01/18 08:47:23;;;;;;;0.00;0.00;;;-3.70;99.90;;;;;;5098807;28;20040;-83
2024/01/18 08:49:49;;;;;;;0.00;0.00;;;-3.60;99.90;;;;;;5099599;28;20048;-84
2024/01/18 08:52:15;;;;;;;0.00;0.00;;;-3.50;99.90;;;;;;5099428;28;20032;-84
2024/01/18 08:54:43;;;;;;;2.97;0.93;;;-3.40;99.90;;;;;;5099564;28;20046;-83
2024/01/18 08:57:09;;;;;;;0.00;0.00;;;-3.30;99.90;;;;;;5101389;28;20078;-83
2024/01/18 08:59:35;;;;;;;0.00;0.00;;;-3.10;99.90;;;;;;5070050;28;20079;-83
2024/01/18 09:02:01;;;;;;;0.10;0.10;;;-3.00;99.90;;;;;;5054055;28;20044;-83
2024/01/18 09:04:27;;;;;;;0.00;0.00;;;-2.70;1.00;;;;;;5097622;28;20066;-83
2024/01/18 09:06:53;;;;;;;0.00;0.00;;;-1.30;19.70;;;;;;5100180;28;20057;-83
2024/01/18 09:09:18;;;;;;;0.00;0.00;;;-2.10;99.90;;;;;;5099933;28;20052;-83
2024/01/18 09:11:45;;;;;;;0.17;0.17;;;-1.70;99.90;;;;;;5085891;28;20039;-83
2024/01/18 09:14:12;;;;;;;0.17;0.17;;;-1.40;99.90;;;;;;5090893;28;20035;-83
2024/01/18 09:16:38;;;;;;;3.90;1.90;;;-1.20;99.90;;;;;;5097006;28;20048;-83
2024/01/18 09:19:03;;;;;;;0.00;0.00;;;-1.30;99.90;;;;;;5093914;28;20055;-83
2024/01/18 09:21:29;;;;;;;0.00;0.00;;;-1.20;99.90;;;;;;5093021;28;20046;-83
2024/01/18 09:23:55;;;;;;;4.63;1.17;;;-1.30;99.90;;;;;;5093396;28;20528;-84
2024/01/18 09:26:21;;;;;;;0.00;0.00;;;-1.30;1.00;;;;;;5071041;28;20051;-84
2024/01/18 09:28:47;;;;;;;0.00;0.00;;;-1.40;1.00;;;;;;5065080;28;20349;-84
2024/01/18 09:31:14;;;;;;;0.00;0.00;;;-1.50;1.00;;;;;;5067532;28;20055;-84
2024/01/18 09:33:40;;;;;;;0.07;0.07;;;-1.60;1.00;;;;;;5094947;28;20043;-84
2024/01/18 09:36:06;;;;;;;1.67;1.57;;;-1.60;1.00;;;;;;5093155;28;20051;-84
2024/01/18 09:38:36;;;;;;;0.00;0.00;;;-1.60;1.00;;;;;;5066928;28;20119;-84
2024/01/18 09:41:05;;;;;;;0.00;0.00;;;-1.50;1.00;;;;;;5093430;28;20572;-84
2024/01/18 09:43:38;;;;;;;0.00;0.00;;;-1.40;1.00;;;;;;5095711;28;20493;-84
2024/01/18 09:46:07;;;;;;;0.00;0.00;;;-1.30;1.00;;;;;;5095860;28;20039;-83
2024/01/18 09:48:34;;;;;;;1.00;0.97;;;-1.20;7.10;;;;;;5083875;28;20504;-84
2024/01/18 09:51:00;;;;;;;0.00;0.00;;;-1.10;37.70;;;;;;5091993;28;20048;-83
2024/01/18 09:53:27;;;;;;;0.00;0.00;;;-0.80;75.90;;;;;;5094093;28;20207;-84
2024/01/18 09:55:53;;;;;;;0.00;0.00;;;-0.80;97.20;;;;;;5095603;28;20508;-84
2024/01/18 09:58:19;;;;;;;0.37;0.37;;;-0.60;99.90;;;;;;5095157;28;20493;-83
2024/01/18 10:00:55;;;;;;;0.00;0.00;;;-0.60;99.90;;;;;;5064679;28;20048;-84
2024/01/18 10:03:21;;;;;;;0.00;0.00;;;-0.50;99.90;;;;;;5091299;28;20040;-84
2024/01/18 10:05:47;;;;;;;0.00;0.00;;;-0.40;99.90;;;;;;5094402;28;20039;-84
2024/01/18 10:08:13;;;;;;;0.00;0.00;;;-0.20;99.90;;;;;;5070091;28;20139;-84
2024/01/18 10:10:38;;;;;;;0.00;0.00;;;0.20;99.90;;;;;;5065011;28;20083;-84
2024/01/18 10:13:04;;;;;;;0.00;0.00;;;0.50;99.90;;;;;;5094375;28;20057;-85
2024/01/18 10:15:33;;;;;;;0.00;0.00;;;0.60;99.90;;;;;;5068156;28;20540;-85
2024/01/18 10:18:02;;;;;;;0.00;0.00;;;0.60;99.90;;;;;;5095698;28;20087;-85
2024/01/18 10:20:28;;;;;;;0.00;0.00;;;0.70;99.90;;;;;;5070151;28;20059;-85
2024/01/18 10:22:54;;;;;;;0.00;0.00;;;0.80;99.90;;;;;;5094626;28;20040;-85
2024/01/18 10:25:24;;;;;;;1.60;1.50;;;0.80;99.90;;;;;;5073381;28;20056;-85
2024/01/18 10:27:55;;;;;;;0.00;0.00;;;1.00;99.90;;;;;;5091886;28;20044;-84
2024/01/18 10:30:21;;;;;;;0.00;0.00;;;1.10;99.90;;;;;;5095936;28;20091;-85
2024/01/18 10:32:48;;;;;;;0.00;0.00;;;1.20;99.90;;;;;;5097541;28;20090;-84
2024/01/18 10:35:25;;;;;;;0.00;0.00;;;1.20;99.90;;;;;;5067569;28;20103;-84
2024/01/18 10:38:04;;;;;;;1.08;0.63;;;1.00;99.90;;;;;;5090522;28;20388;-84
2024/01/18 10:40:33;;;;;;;0.00;0.00;;;0.90;99.90;;;;;;5060605;28;20112;-85
2024/01/18 10:43:00;;;;;;;1.90;1.00;;;0.90;99.90;;;;;;5092596;28;20065;-84
2024/01/18 10:45:29;;;;;;;0.00;0.00;;;1.00;99.90;;;;;;5095908;28;20040;-85
2024/01/18 10:47:56;;;;;;;0.00;0.00;;;1.00;99.90;;;;;;5094473;28;20052;-84
2024/01/18 10:50:22;;;;;;;0.00;0.00;;;1.10;99.90;;;;;;5095024;28;20091;-84
2024/01/18 10:52:48;;;;;;;0.00;0.00;;;1.20;99.90;;;;;;5074590;28;20086;-84
2024/01/18 10:55:14;;;;;;;0.00;0.00;;;1.30;99.90;;;;;;5093971;28;20163;-84
2024/01/18 10:57:40;;;;;;;0.00;0.00;;;1.50;99.90;;;;;;5104161;28;20502;-84
2024/01/18 11:00:06;;;;;;;0.05;0.05;;;1.70;99.90;;;;;;5069097;28;20070;-84
2024/01/18 11:02:40;;;;;;;0.00;0.00;;;1.90;99.90;;;;;;5070317;28;20063;-84
2024/01/18 11:05:17;;;;;;;0.00;0.00;;;1.90;99.90;;;;;;5094704;28;20043;-84
2024/01/18 11:07:43;;;;;;;0.00;0.00;;;1.70;99.90;;;;;;5071888;28;20056;-83
2024/01/18 11:10:13;;;;;;;0.00;0.00;;;1.60;99.90;;;;;;5097613;28;20087;-84
2024/01/18 11:12:41;;;;;;;0.00;0.00;;;1.80;99.90;;;;;;5097990;28;20035;-84
2024/01/18 11:15:10;;;;;;;0.00;0.00;;;1.90;99.90;;;;;;5095073;28;20040;-84
2024/01/18 11:17:45;;;;;;;0.00;0.00;;;2.00;99.90;;;;;;5093526;28;20451;-84
2024/01/18 11:20:12;;;;;;;0.00;0.00;;;2.20;99.90;;;;;;5095791;28;20123;-85
2024/01/18 11:22:39;;;;;;;0.00;0.00;;;2.40;99.90;;;;;;5098292;28;20122;-84
2024/01/18 11:25:09;;;;;;;0.00;0.00;;;2.50;99.90;;;;;;5073694;28;20051;-84
2024/01/18 11:27:41;;;;;;;0.00;0.00;;;2.50;99.90;;;;;;5075298;28;20051;-84
2024/01/18 11:30:31;;;;;;;0.10;0.08;;;2.50;99.90;;;;;;5074727;28;20052;-84
2024/01/18 11:32:57;;;;;;;0.00;0.00;;;2.20;99.90;;;;;;5103238;28;20048;-84
2024/01/18 11:35:23;;;;;;;0.00;0.00;;;2.20;99.90;;;;;;5102423;28;20039;-84
2024/01/18 11:37:49;;;;;;;0.00;0.00;;;2.00;99.90;;;;;;5100743;28;20044;-82
2024/01/18 11:40:17;;;;;;;0.73;0.40;;;2.10;99.90;;;;;;5077554;28;20051;-83
2024/01/18 11:42:45;;;;;;;0.00;0.00;;;2.10;99.90;;;;;;5101307;28;20051;-83
2024/01/18 11:45:17;;;;;;;0.00;0.00;;;1.90;1.00;;;;;;5100912;28;20428;-84
2024/01/18 11:47:44;;;;;;;0.00;0.00;;;1.80;1.00;;;;;;5054443;28;20863;-84
2024/01/18 11:50:13;;;;;;;0.00;0.00;;;1.60;1.00;;;;;;5069952;28;20055;-84
2024/01/18 11:52:41;;;;;;;0.00;0.00;;;1.40;1.00;;;;;;5061888;28;20035;-84
2024/01/18 11:55:07;;;;;;;0.00;0.00;;;1.30;1.00;;;;;;5101182;28;20076;-84
2024/01/18 11:57:33;;;;;;;0.00;0.00;;;1.30;1.00;;;;;;5104806;28;20047;-84
2024/01/18 12:00:00;;;;;;;0.00;0.00;;;1.30;1.00;;;;;;5080659;28;20131;-84
2024/01/18 12:02:29;;;;;;;0.00;0.00;;;1.30;63.80;;;;;;5102031;28;20056;-83
2024/01/18 12:04:55;;;;;;;0.00;0.00;;;1.30;87.40;;;;;;5082154;28;20048;-83
2024/01/18 12:07:22;;;;;;;0.00;0.00;;;1.30;96.50;;;;;;5075119;28;20056;-84
2024/01/18 12:09:48;;;;;;;0.90;0.90;;;1.30;99.90;;;;;;5104841;28;20056;-83
2024/01/18 12:12:14;;;;;;;0.00;0.00;;;1.30;99.90;;;;;;5108433;28;20055;-84
2024/01/18 12:14:42;;;;;;;0.40;0.40;;;1.40;99.90;;;;;;5102562;28;20044;-83
2024/01/18 12:17:09;;;;;;;0.08;0.08;;;1.50;99.20;;;;;;5076079;28;20113;-83
2024/01/18 12:19:40;;;;;;;0.13;0.13;;;1.70;85.60;;;;;;5110604;28;20593;-83
2024/01/18 12:22:17;;;;;;;0.00;0.00;;;1.90;94.80;;;;;;5091014;28;20071;-84
2024/01/18 12:24:43;;;;;;;0.15;0.15;;;2.20;99.90;;;;;;5106798;28;20052;-84
2024/01/18 12:27:09;;;;;;;0.00;0.00;;;2.30;96.80;;;;;;5105936;28;20040;-84
2024/01/18 12:29:40;;;;;;;10.02;0.60;;;2.50;75.00;;;;;;5105886;28;20072;-83
2024/01/18 12:32:08;;;;;;;0.00;0.00;;;2.60;81.80;;;;;;5105737;28;20123;-84
2024/01/18 12:34:35;;;;;;;0.13;0.13;;;2.70;1.00;;;;;;5080449;28;20051;-83
2024/01/18 12:37:01;;;;;;;0.00;0.00;;;2.90;1.00;;;;;;5110531;28;20450;-84
2024/01/18 12:39:28;;;;;;;0.00;0.00;;;2.80;1.00;;;;;;5101067;28;20512;-83
2024/01/18 12:41:55;;;;;;;0.00;0.00;;;2.90;99.90;;;;;;5073440;28;20162;-84
2024/01/18 12:44:22;;;;;;;20.83;0.85;;;3.00;99.90;;;;;;5102995;28;20127;-84
2024/01/18 12:46:50;;;;;;;0.05;0.05;;;2.80;33.20;;;;;;5103496;28;20082;-83